createdAt,value
2018-09-05T00:01:18.125Z,111.20
2018-09-05T00:03:46.701Z,114.60
2018-09-05T00:06:15.108Z,108.80
2018-09-05T00:08:43.513Z,111.93
2018-09-05T00:11:12.008Z,105.47
2018-09-05T00:13:40.487Z,116.63
2018-09-05T00:16:08.969Z,116.93
2018-09-05T00:18:37.389Z,119.40
2018-09-05T00:21:05.824Z,127.67
2018-09-05T00:23:34.249Z,117.13
2018-09-05T00:26:02.712Z,115.33
2018-09-05T00:28:31.098Z,91.97
2018-09-05T00:30:59.672Z,106.73
2018-09-05T00:33:28.072Z,107.10
2018-09-05T00:35:56.482Z,90.70
2018-09-05T00:38:25.040Z,96.50
2018-09-05T00:40:53.426Z,76.03
2018-09-05T00:43:21.829Z,76.73
2018-09-05T00:45:50.224Z,105.37
2018-09-05T00:48:18.616Z,108.97
2018-09-05T00:50:47.033Z,130.80
2018-09-05T00:53:15.411Z,147.97
2018-09-05T00:55:43.804Z,131.23
2018-09-05T00:58:12.221Z,112.53
2018-09-05T01:00:40.680Z,113.67
2018-09-05T01:03:37.135Z,117.23
2018-09-05T01:06:05.564Z,116.63
2018-09-05T01:08:33.973Z,95.07
2018-09-05T01:11:02.438Z,87.20
2018-09-05T01:13:30.835Z,72.70
2018-09-05T01:15:59.248Z,93.83
2018-09-05T01:18:27.640Z,96.33
2018-09-05T01:20:56.072Z,103.23
2018-09-05T01:23:24.484Z,122.43
2018-09-05T01:25:52.878Z,114.27
2018-09-05T01:28:21.286Z,102.00
2018-09-05T01:30:49.753Z,102.70
2018-09-05T01:33:18.152Z,119.47
2018-09-05T01:35:46.700Z,124.60
2018-09-05T01:38:15.272Z,148.47
2018-09-05T01:40:43.660Z,136.20
2018-09-05T01:43:12.069Z,147.97
2018-09-05T01:45:40.629Z,164.57
2018-09-05T01:48:09.025Z,165.23
2018-09-05T01:50:44.420Z,137.03
2018-09-05T01:53:13.588Z,116.37
2018-09-05T01:55:42.014Z,99.40
2018-09-05T01:58:10.441Z,100.00
2018-09-05T02:00:38.846Z,113.20
2018-09-05T02:03:07.303Z,115.80
2018-09-05T02:05:35.759Z,113.60
2018-09-05T02:08:04.199Z,96.50
2018-09-05T02:10:32.766Z,93.13
2018-09-05T02:13:01.836Z,92.50
2018-09-05T02:15:30.431Z,78.87
2018-09-05T02:17:58.850Z,86.23
2018-09-05T02:20:27.280Z,82.57
2018-09-05T02:22:55.678Z,65.53
2018-09-05T02:25:24.090Z,65.80
2018-09-05T02:27:52.532Z,72.23
2018-09-05T02:30:20.935Z,75.87
2018-09-05T02:32:49.505Z,81.80
2018-09-05T02:35:18.545Z,89.73
2018-09-05T02:37:47.007Z,94.80
2018-09-05T02:40:15.474Z,83.97
2018-09-05T02:42:43.808Z,91.60
2018-09-05T02:45:12.233Z,90.67
2018-09-05T02:47:40.649Z,81.43
2018-09-05T02:50:09.052Z,56.60
2018-09-05T02:52:37.775Z,54.60
2018-09-05T02:55:06.418Z,45.33
2018-09-05T02:57:34.792Z,69.00
2018-09-05T03:00:03.381Z,63.63
2018-09-05T03:02:31.848Z,53.20
2018-09-05T03:05:00.260Z,58.57
2018-09-05T03:07:28.732Z,69.63
2018-09-05T03:09:57.140Z,69.57
2018-09-05T03:12:25.529Z,71.03
2018-09-05T03:14:53.952Z,63.80
2018-09-05T03:17:22.428Z,59.37
2018-09-05T03:19:50.844Z,46.60
2018-09-05T03:22:19.258Z,41.90
2018-09-05T03:24:47.657Z,44.20
2018-09-05T03:27:16.043Z,53.90
2018-09-05T03:29:44.488Z,51.80
2018-09-05T03:32:13.047Z,52.67
2018-09-05T03:34:41.404Z,49.07
2018-09-05T03:37:10.408Z,42.00
2018-09-05T03:39:38.833Z,85.47
2018-09-05T03:42:09.450Z,46.30
2018-09-05T03:44:37.832Z,40.00
2018-09-05T03:47:06.233Z,44.63
2018-09-05T03:49:34.691Z,60.33
2018-09-05T03:52:03.069Z,61.13
2018-09-05T03:54:31.469Z,53.23
2018-09-05T03:57:00.092Z,46.77
2018-09-05T03:59:28.513Z,42.07
2018-09-05T04:01:56.918Z,43.63
2018-09-05T04:04:25.348Z,55.67
2018-09-05T04:06:53.763Z,48.93
2018-09-05T04:09:22.161Z,51.77
2018-09-05T04:11:50.593Z,54.93
2018-09-05T04:14:18.972Z,49.80
2018-09-05T04:16:47.384Z,46.53
2018-09-05T04:19:15.771Z,50.57
2018-09-05T04:21:44.171Z,52.30
2018-09-05T04:24:12.556Z,48.27
2018-09-05T04:26:40.985Z,76.57
2018-09-05T04:29:09.560Z,70.13
2018-09-05T04:31:37.988Z,76.87
2018-09-05T04:34:06.438Z,76.50
2018-09-05T04:36:34.846Z,80.53
2018-09-05T04:39:05.386Z,79.40
2018-09-05T04:41:34.073Z,73.80
2018-09-05T04:44:02.497Z,69.93
2018-09-05T04:46:31.489Z,66.53
2018-09-05T04:49:00.073Z,68.70
2018-09-05T04:51:28.452Z,72.13
2018-09-05T04:53:56.842Z,85.10
2018-09-05T04:56:25.490Z,83.27
2018-09-05T04:58:55.046Z,93.43
2018-09-05T05:01:23.461Z,102.00
2018-09-05T05:03:51.980Z,107.07
2018-09-05T05:06:20.296Z,114.23
2018-09-05T05:08:48.702Z,106.73
2018-09-05T05:11:17.143Z,115.80
2018-09-05T05:13:45.841Z,113.80
2018-09-05T05:16:14.272Z,113.10
2018-09-05T05:18:42.686Z,108.17
2018-09-05T05:21:11.143Z,106.13
2018-09-05T05:23:39.629Z,102.43
2018-09-05T05:26:07.956Z,100.30
2018-09-05T05:28:36.396Z,93.97
2018-09-05T05:31:05.084Z,83.30
2018-09-05T05:33:33.484Z,75.37
2018-09-05T05:36:01.886Z,74.77
2018-09-05T05:38:30.297Z,64.23
2018-09-05T05:40:58.825Z,69.20
2018-09-05T05:43:27.241Z,70.87
2018-09-05T05:45:55.649Z,71.40
2018-09-05T05:48:24.668Z,68.53
2018-09-05T05:50:53.082Z,72.97
2018-09-05T05:53:21.484Z,58.83
2018-09-05T05:55:49.904Z,64.40
2018-09-05T05:58:18.387Z,77.30
2018-09-05T06:00:46.838Z,75.00
2018-09-05T06:03:15.198Z,77.73
2018-09-05T06:05:43.601Z,75.70
2018-09-05T06:08:12.007Z,73.40
2018-09-05T06:10:40.480Z,72.30
2018-09-05T06:13:08.885Z,69.03
2018-09-05T06:15:37.503Z,73.07
2018-09-05T06:18:05.900Z,75.23
2018-09-05T06:20:34.316Z,74.13
2018-09-05T06:23:02.985Z,76.53
2018-09-05T06:25:31.398Z,87.23
2018-09-05T06:27:59.821Z,86.17
2018-09-05T06:30:28.312Z,88.00
2018-09-05T06:32:56.715Z,91.43
2018-09-05T06:35:25.286Z,92.90
2018-09-05T06:37:53.699Z,87.67
2018-09-05T06:40:22.097Z,94.80
2018-09-05T06:42:50.512Z,88.93
2018-09-05T06:45:19.053Z,106.20
2018-09-05T06:47:47.423Z,95.57
2018-09-05T06:50:15.848Z,87.13
2018-09-05T06:52:44.289Z,85.63
2018-09-05T06:55:12.693Z,79.30
2018-09-05T06:57:41.121Z,82.90
2018-09-05T07:00:10.388Z,75.90
2018-09-05T07:02:38.806Z,79.23
2018-09-05T07:05:07.397Z,76.10
2018-09-05T07:07:35.982Z,72.07
2018-09-05T07:10:04.454Z,80.17
2018-09-05T07:12:32.820Z,74.37
2018-09-05T07:15:01.229Z,72.50
2018-09-05T07:17:29.767Z,74.63
2018-09-05T07:19:58.123Z,77.13
2018-09-05T07:22:26.585Z,70.63
2018-09-05T07:24:54.998Z,76.10
2018-09-05T07:27:23.712Z,71.67
2018-09-05T07:29:52.076Z,74.30
2018-09-05T07:32:20.506Z,74.17
2018-09-05T07:34:49.069Z,72.87
2018-09-05T07:37:17.463Z,83.30
2018-09-05T07:39:45.857Z,68.47
2018-09-05T07:42:14.377Z,70.87
2018-09-05T07:44:42.793Z,66.70
2018-09-05T07:47:11.198Z,64.80
2018-09-05T07:49:39.617Z,67.60
2018-09-05T07:52:08.035Z,70.60
2018-09-05T07:54:36.425Z,68.33
2018-09-05T07:57:05.144Z,61.43
2018-09-05T07:59:33.592Z,59.10
2018-09-05T08:02:02.130Z,68.47
2018-09-05T08:04:30.588Z,66.17
2018-09-05T08:06:59.002Z,65.63
2018-09-05T08:09:27.420Z,65.77
2018-09-05T08:11:55.848Z,68.83
2018-09-05T08:14:24.246Z,76.93
2018-09-05T08:16:52.652Z,70.03
2018-09-05T08:19:21.216Z,57.90
2018-09-05T08:21:49.632Z,62.50
2018-09-05T08:24:18.584Z,64.80
2018-09-05T08:26:47.173Z,68.37
2018-09-05T08:29:15.570Z,68.23
2018-09-05T08:31:43.973Z,69.37
2018-09-05T08:34:12.441Z,71.77
2018-09-05T08:36:40.956Z,64.87
2018-09-05T08:39:12.460Z,69.53
2018-09-05T08:41:40.895Z,62.50
2018-09-05T08:44:09.586Z,68.30
2018-09-05T08:46:37.949Z,56.73
2018-09-05T08:49:06.432Z,53.97
2018-09-05T08:51:34.841Z,51.27
2018-09-05T08:54:03.238Z,56.60
2018-09-05T08:56:31.644Z,63.00
2018-09-05T08:59:00.077Z,60.47
2018-09-05T09:01:28.523Z,69.83
2018-09-05T09:03:57.017Z,54.20
2018-09-05T09:06:25.733Z,56.37
2018-09-05T09:08:54.306Z,58.87
2018-09-05T09:11:22.931Z,52.07
2018-09-05T09:13:51.372Z,54.60
2018-09-05T09:16:19.756Z,51.93
2018-09-05T09:18:48.470Z,53.80
2018-09-05T09:21:16.853Z,49.43
2018-09-05T09:23:45.256Z,52.23
2018-09-05T09:26:13.668Z,45.80
2018-09-05T09:28:42.052Z,51.53
2018-09-05T09:31:10.513Z,48.87
2018-09-05T09:33:39.053Z,50.77
2018-09-05T09:36:07.548Z,51.70
2018-09-05T09:38:36.304Z,52.90
2018-09-05T09:41:04.720Z,52.63
2018-09-05T09:43:33.124Z,50.70
2018-09-05T09:46:01.577Z,69.87
2018-09-05T09:48:29.988Z,52.37
2018-09-05T09:50:58.613Z,53.80
2018-09-05T09:53:27.030Z,52.97
2018-09-05T09:55:55.553Z,60.80
2018-09-05T10:02:04.801Z,54.77
2018-09-05T10:04:38.648Z,51.57
2018-09-05T10:07:12.379Z,50.87
2018-09-05T10:09:46.281Z,49.13
2018-09-05T10:12:20.110Z,47.20
2018-09-05T10:14:53.796Z,50.20
2018-09-05T10:17:27.542Z,52.93
2018-09-05T10:19:57.408Z,43.90
2018-09-05T10:22:25.921Z,40.73
2018-09-05T10:24:55.417Z,42.93
2018-09-05T10:27:24.729Z,46.03
2018-09-05T10:29:53.916Z,57.17
2018-09-05T10:32:22.644Z,48.60
2018-09-05T10:34:51.084Z,55.73
2018-09-05T10:37:19.529Z,54.53
2018-09-05T10:39:48.251Z,56.27
2018-09-05T10:42:16.676Z,55.13
2018-09-05T10:44:45.085Z,55.50
2018-09-05T10:47:13.497Z,53.40
2018-09-05T10:49:41.896Z,52.93
2018-09-05T10:52:10.655Z,54.90
2018-09-05T10:54:39.061Z,64.87
2018-09-05T10:57:07.565Z,54.73
2018-09-05T10:59:35.968Z,56.90
2018-09-05T11:02:04.406Z,64.80
2018-09-05T11:04:32.807Z,60.73
2018-09-05T11:07:01.244Z,55.63
2018-09-05T11:09:29.659Z,59.90
2018-09-05T11:11:58.061Z,56.53
2018-09-05T11:14:26.590Z,60.60
2018-09-05T11:16:54.989Z,53.00
2018-09-05T11:19:23.508Z,52.97
2018-09-05T11:21:51.919Z,59.50
2018-09-05T11:24:20.414Z,59.47
2018-09-05T11:26:48.866Z,64.23
2018-09-05T11:29:17.345Z,57.10
2018-09-05T11:31:45.809Z,58.20
2018-09-05T11:34:14.433Z,61.00
2018-09-05T11:36:42.846Z,58.73
2018-09-05T11:39:13.014Z,55.47
2018-09-05T11:41:41.458Z,52.87
2018-09-05T11:44:09.899Z,55.40
2018-09-05T11:46:39.168Z,64.27
2018-09-05T11:49:08.564Z,63.40
2018-09-05T11:51:37.346Z,51.57
2018-09-05T11:54:06.367Z,53.47
2018-09-05T11:56:34.760Z,54.43
2018-09-05T11:59:03.188Z,64.20
2018-09-05T12:01:31.777Z,58.87
2018-09-05T12:04:00.195Z,56.90
2018-09-05T12:06:28.621Z,59.50
2018-09-05T12:08:57.248Z,56.50
2018-09-05T12:11:25.656Z,53.90
2018-09-05T12:13:54.026Z,52.30
2018-09-05T12:16:22.462Z,52.03
2018-09-05T12:18:50.887Z,48.63
2018-09-05T12:21:19.316Z,47.30
2018-09-05T12:23:47.757Z,49.40
2018-09-05T12:26:16.156Z,44.60
2018-09-05T12:28:44.672Z,43.67
2018-09-05T12:31:13.076Z,43.47
2018-09-05T12:33:41.500Z,40.87
2018-09-05T12:36:09.956Z,46.63
2018-09-05T12:38:38.332Z,44.67
2018-09-05T12:41:06.752Z,47.90
2018-09-05T12:43:35.160Z,37.77
2018-09-05T12:46:03.806Z,44.63
2018-09-05T12:48:32.218Z,51.80
2018-09-05T12:51:00.641Z,48.67
2018-09-05T12:53:29.385Z,45.70
2018-09-05T12:55:57.792Z,44.10
2018-09-05T12:58:26.200Z,46.80
2018-09-05T13:00:54.680Z,58.83
2018-09-05T13:03:23.081Z,49.20
2018-09-05T13:05:51.517Z,44.50
2018-09-05T13:08:19.960Z,44.80
2018-09-05T13:10:48.378Z,39.40
2018-09-05T13:13:16.970Z,38.87
2018-09-05T13:15:45.445Z,39.73
2018-09-05T13:18:13.840Z,35.60
2018-09-05T13:20:42.271Z,37.60
2018-09-05T13:23:10.675Z,34.97
2018-09-05T13:25:39.076Z,32.73
2018-09-05T13:28:07.566Z,34.97
2018-09-05T13:30:35.964Z,41.03
2018-09-05T13:33:04.388Z,28.90
2018-09-05T13:35:32.852Z,28.00
2018-09-05T13:38:01.884Z,40.50
2018-09-05T13:40:30.276Z,30.93
2018-09-05T13:42:59.706Z,30.20
2018-09-05T13:45:28.264Z,39.30
2018-09-05T13:47:56.662Z,29.03
2018-09-05T13:50:25.089Z,31.87
2018-09-05T13:52:53.484Z,28.20
2018-09-05T13:55:22.104Z,42.20
2018-09-05T13:57:50.545Z,29.30
2018-09-05T14:00:18.956Z,25.47
2018-09-05T14:02:47.754Z,21.23
2018-09-05T14:05:17.034Z,24.40
2018-09-05T14:07:45.452Z,24.27
2018-09-05T14:10:15.153Z,26.90
2018-09-05T14:12:43.672Z,28.30
2018-09-05T14:15:12.082Z,28.37
2018-09-05T14:17:40.517Z,33.30
2018-09-05T14:20:08.947Z,29.20
2018-09-05T14:22:37.613Z,32.70
2018-09-05T14:25:06.354Z,37.67
2018-09-05T14:27:34.819Z,34.47
2018-09-05T14:30:03.660Z,31.80
2018-09-05T14:32:32.096Z,29.93
2018-09-05T14:35:00.489Z,39.13
2018-09-05T14:37:29.098Z,33.20
2018-09-05T14:39:57.507Z,29.60
2018-09-05T14:42:25.913Z,33.73
2018-09-05T14:44:54.477Z,27.40
2018-09-05T14:47:22.898Z,30.67
2018-09-05T14:49:51.362Z,30.97
2018-09-05T14:52:19.788Z,31.17
2018-09-05T14:54:48.173Z,30.37
2018-09-05T14:57:16.584Z,28.13
2018-09-05T14:59:45.315Z,27.00
2018-09-05T15:02:13.701Z,24.47
2018-09-05T15:04:42.116Z,24.13
2018-09-05T15:07:10.642Z,28.00
2018-09-05T15:09:39.089Z,27.30
2018-09-05T15:12:07.494Z,26.83
2018-09-05T15:14:36.137Z,22.03
2018-09-05T15:17:04.675Z,20.83
2018-09-05T15:19:33.092Z,21.00
2018-09-05T15:22:01.686Z,31.20
2018-09-05T15:24:30.337Z,28.90
2018-09-05T15:26:58.760Z,27.50
2018-09-05T15:29:27.181Z,25.13
2018-09-05T15:31:55.698Z,27.70
2018-09-05T15:34:24.233Z,22.93
2018-09-05T15:36:52.649Z,26.40
2018-09-05T15:39:21.306Z,28.03
2018-09-05T15:41:49.745Z,23.77
2018-09-05T15:44:18.170Z,21.73
2018-09-05T15:46:46.650Z,24.87
2018-09-05T15:49:15.228Z,24.43
2018-09-05T15:51:43.662Z,25.17
2018-09-05T15:54:12.121Z,18.53
2018-09-05T15:56:40.626Z,29.90
2018-09-05T15:59:09.025Z,24.83
2018-09-05T16:01:37.680Z,22.60
2018-09-05T16:04:06.388Z,22.33
2018-09-05T16:06:34.804Z,18.53
2018-09-05T16:09:03.437Z,22.63
2018-09-05T16:11:31.889Z,19.83
2018-09-05T16:14:00.295Z,20.17
2018-09-05T16:16:28.854Z,31.40
2018-09-05T16:18:57.268Z,19.47
2018-09-05T16:21:25.720Z,26.47
2018-09-05T16:23:54.128Z,25.03
2018-09-05T16:26:22.587Z,17.87
2018-09-05T16:28:51.016Z,19.07
2018-09-05T16:31:19.744Z,20.63
2018-09-05T16:33:48.136Z,21.50
2018-09-05T16:36:16.631Z,17.50
2018-09-05T16:38:47.590Z,18.33
2018-09-05T16:41:16.019Z,19.20
2018-09-05T16:43:44.483Z,23.00
2018-09-05T16:46:13.022Z,17.90
2018-09-05T16:48:41.502Z,20.43
2018-09-05T16:51:10.217Z,22.33
2018-09-05T16:53:39.130Z,29.37
2018-09-05T16:56:07.789Z,25.60
2018-09-05T16:58:36.611Z,31.43
2018-09-05T17:01:05.443Z,22.40
2018-09-05T17:03:34.901Z,25.87
2018-09-05T17:06:03.700Z,20.50
2018-09-05T17:08:32.208Z,19.93
2018-09-05T17:11:00.803Z,24.23
2018-09-05T17:13:29.184Z,21.37
2018-09-05T17:15:57.736Z,20.33
2018-09-05T17:18:26.403Z,21.13
2018-09-05T17:20:55.039Z,19.93
2018-09-05T17:23:23.511Z,20.40
2018-09-05T17:25:51.979Z,20.90
2018-09-05T17:28:21.367Z,18.83
2018-09-05T17:30:50.172Z,20.73
2018-09-05T17:33:18.854Z,18.93
2018-09-05T17:35:47.285Z,24.23
2018-09-05T17:38:16.052Z,21.37
2018-09-05T17:40:44.598Z,19.27
2018-09-05T17:43:13.038Z,20.57
2018-09-05T17:45:41.507Z,23.47
2018-09-05T17:48:10.196Z,22.00
2018-09-05T17:50:38.624Z,22.90
2018-09-05T17:53:07.095Z,17.90
2018-09-05T17:55:35.601Z,22.80
2018-09-05T17:58:04.522Z,22.63
2018-09-05T18:00:33.001Z,23.73
2018-09-05T18:03:01.477Z,19.60
2018-09-05T18:05:29.933Z,23.60
2018-09-05T18:07:58.365Z,20.63
2018-09-05T18:10:26.808Z,21.37
2018-09-05T18:12:55.620Z,18.57
2018-09-05T18:15:24.144Z,21.00
2018-09-05T18:17:52.642Z,18.67
2018-09-05T18:20:21.133Z,18.90
2018-09-05T18:22:49.804Z,19.73
2018-09-05T18:25:18.225Z,19.27
2018-09-05T18:27:46.760Z,24.40
2018-09-05T18:30:15.224Z,21.73
2018-09-05T18:32:43.644Z,24.27
2018-09-05T18:35:12.149Z,22.10
2018-09-05T18:37:40.669Z,15.33
2018-09-05T18:40:09.120Z,19.87
2018-09-05T18:42:37.709Z,19.07
2018-09-05T18:45:07.828Z,22.50
2018-09-05T18:47:36.376Z,20.60
2018-09-05T18:50:05.249Z,20.53
2018-09-05T18:52:33.982Z,16.80
2018-09-05T18:55:02.735Z,22.90
2018-09-05T18:57:31.337Z,15.83
2018-09-05T18:59:59.805Z,16.13
2018-09-05T19:02:28.273Z,21.43
2018-09-05T19:04:56.704Z,23.27
2018-09-05T19:07:25.271Z,17.33
2018-09-05T19:09:53.665Z,18.17
2018-09-05T19:12:22.144Z,25.83
2018-09-05T19:14:51.640Z,25.10
2018-09-05T19:17:20.089Z,21.63
2018-09-05T19:19:48.699Z,18.20
2018-09-05T19:22:17.097Z,24.40
2018-09-05T19:24:45.710Z,21.40
2018-09-05T19:27:14.277Z,30.87
2018-09-05T19:29:42.685Z,22.43
2018-09-05T19:32:11.306Z,19.77
2018-09-05T19:34:39.870Z,21.97
2018-09-05T19:37:08.725Z,34.90
2018-09-05T19:39:37.136Z,27.50
2018-09-05T19:42:06.265Z,19.27
2018-09-05T19:44:37.477Z,22.20
2018-09-05T19:47:06.302Z,21.87
2018-09-05T19:49:34.833Z,27.30
2018-09-05T19:52:03.476Z,20.30
2018-09-05T19:54:31.973Z,22.83
2018-09-05T19:57:00.610Z,19.77
2018-09-05T19:59:29.047Z,25.00
2018-09-05T20:04:26.461Z,22.93
2018-09-05T20:06:55.170Z,24.10
2018-09-05T20:09:23.641Z,23.23
2018-09-05T20:11:52.081Z,23.00
2018-09-05T20:14:20.646Z,21.90
2018-09-05T20:16:49.474Z,20.90
2018-09-05T20:19:18.003Z,20.23
2018-09-05T20:21:46.443Z,25.70
2018-09-05T20:24:14.911Z,21.10
2018-09-05T20:26:43.583Z,17.80
2018-09-05T20:29:12.000Z,20.03
2018-09-05T20:31:40.425Z,28.73
2018-09-05T20:34:09.129Z,18.43
2018-09-05T20:36:37.676Z,20.30
2018-09-05T20:39:08.952Z,19.57
2018-09-05T20:41:37.350Z,30.60
2018-09-05T20:44:05.824Z,21.73
2018-09-05T20:46:34.610Z,20.73
2018-09-05T20:49:03.172Z,22.33
2018-09-05T20:51:31.596Z,28.70
2018-09-05T20:54:00.157Z,23.73
2018-09-05T20:56:28.589Z,25.03
2018-09-05T20:58:57.093Z,21.70
2018-09-05T21:01:25.548Z,20.80
2018-09-05T21:03:53.940Z,28.57
2018-09-05T21:06:22.405Z,26.90
2018-09-05T21:08:50.892Z,24.77
2018-09-05T21:11:19.409Z,24.00
2018-09-05T21:13:48.089Z,21.57
2018-09-05T21:16:17.160Z,21.87
2018-09-05T21:18:45.521Z,26.67
2018-09-05T21:21:14.056Z,24.80
2018-09-05T21:23:42.469Z,28.03
2018-09-05T21:26:10.900Z,25.83
2018-09-05T21:28:39.282Z,25.40
2018-09-05T21:31:07.684Z,26.70
2018-09-05T21:33:36.096Z,21.60
2018-09-05T21:36:04.518Z,25.70
2018-09-05T21:38:32.967Z,24.67
2018-09-05T21:41:01.438Z,26.40
2018-09-05T21:43:30.080Z,22.57
2018-09-05T21:45:58.498Z,21.33
2018-09-05T21:48:27.661Z,18.60
2018-09-05T21:50:56.171Z,23.53
2018-09-05T21:53:24.581Z,21.87
2018-09-05T21:55:53.171Z,19.67
2018-09-05T21:58:21.614Z,23.70
2018-09-05T22:00:50.090Z,26.90
2018-09-05T22:03:18.540Z,21.73
2018-09-05T22:05:46.947Z,19.90
2018-09-05T22:08:15.482Z,20.80
2018-09-05T22:10:43.988Z,19.60
2018-09-05T22:13:12.424Z,24.07
2018-09-05T22:15:46.316Z,25.87
2018-09-05T22:18:15.532Z,27.33
2018-09-05T22:20:44.009Z,32.90
2018-09-05T22:23:12.419Z,33.67
2018-09-05T22:25:41.108Z,37.73
2018-09-05T22:28:09.508Z,39.57
2018-09-05T22:30:37.912Z,41.70
2018-09-05T22:33:06.752Z,42.60
2018-09-05T22:35:35.142Z,46.40
2018-09-05T22:38:03.713Z,45.23
2018-09-05T22:40:36.425Z,48.13
2018-09-05T22:43:16.329Z,47.70
2018-09-05T22:45:56.026Z,49.13
2018-09-05T22:48:49.022Z,49.97
2018-09-05T22:53:41.176Z,49.30
2018-09-05T22:56:41.824Z,50.00
2018-09-05T23:00:31.209Z,53.60
2018-09-05T23:03:18.565Z,51.57
2018-09-05T23:06:56.277Z,58.27
2018-09-05T23:09:36.107Z,57.13
2018-09-05T23:12:18.616Z,58.60
2018-09-05T23:14:58.389Z,66.27
2018-09-05T23:17:43.245Z,61.80
2018-09-05T23:20:53.973Z,65.87
2018-09-05T23:23:33.784Z,62.93
2018-09-05T23:26:02.378Z,65.27
2018-09-05T23:28:30.800Z,64.13
2018-09-05T23:30:59.221Z,71.27
2018-09-05T23:33:27.697Z,78.80
2018-09-05T23:35:56.125Z,77.83
2018-09-05T23:38:24.777Z,79.40
2018-09-05T23:40:53.181Z,79.70
2018-09-05T23:43:21.570Z,82.00
2018-09-05T23:45:50.118Z,81.93
2018-09-05T23:48:18.533Z,78.10
2018-09-05T23:50:46.933Z,80.80
2018-09-05T23:53:15.541Z,80.57
2018-09-05T23:55:43.972Z,83.00
2018-09-05T23:58:12.557Z,77.67
